Terminal Aerodrome Forecast
Issued by NWS

Home | Current Version | Previous Version | Text Only | Print | Product List | Glossary On
Versions: 1 2 3 4 5 6 7 8 9 10 11 12 13 14 15 16 17 18 19 20
858
FTUS44 KLIX 301137
TAFMSY
TAF
KMSY 301137Z 3012/0112 15008KT P6SM VCSH SCT015 BKN120
     FM301600 15013KT P6SM VCSH BKN025
     FM301800 17014KT P6SM VCTS BKN025CB BKN040
      TEMPO 3020/3022 VRB25G40KT 1SM TSRA OVC010CB
     FM010000 16011KT P6SM SCT025 OVC060
     FM010500 16009KT P6SM OVC015=

USA.gov is the U.S. government's official web portal to all federal, state and local government web resources and services.